Terminal Aerodrome Forecast
Issued by NWS Upton, NY

Home | Current Version | Previous Version | Text Only | Print | Product List | Glossary On
Versions: 1 2 3 4 5 6 7 8 9 10 11 12 13 14 15 16 17 18 19 20 21 22 23 24 25 26 27 28
000
FTUS41 KOKX 231900 AAA
TAFISP
TAF AMD
KISP 231907Z 2319/2418 34015G24KT P6SM VCSH FEW008 OVC015
      TEMPO 2319/2322 SCT015 OVC025
     FM240000 33015G22KT P6SM BKN035 BKN060
     FM240700 33013KT P6SM BKN035 BKN080
     FM241500 33015G23KT P6SM BKN040=

USA.gov is the U.S. government's official web portal to all federal, state and local government web resources and services.